Delaware County Johnson Field
KMIE : now visible

Airfield :











YOU CAN JOIN US ON...

 
LOGIN :

Register | Disclaimer

   EN    FR    IT 

 









Legend :    VFR   Marginal VFR   IFR   Intensive IFR   Very Intensive IFR
Visi :
Ceiling :
>= 8 km
>= 3000ft
5 to 8 km
1000 to 3000 ft
1500m to 5 km
500 to 1000 ft
800 to 1500m
200 to 500 ft
< 800m
< 200 ft
Symbols :   Thunderstorms  Fog  Heavy snow  Heavy precipitations  Wind > 20 kt






- Airport Elevation : 937 ft
- IATA code : MIE


KMIE - Delaware County Johnson Field

CURRENT METAR :
  • 040853Z AUTO 27003KT 10SM CLR M08/M12 A3037 RMK AO2 SLP292 T10831117 56012

EXPIRED METARs :
  • 040753Z AUTO 22003KT 10SM CLR M06/M11 A3037 RMK AO2 SLP292 T10611111
  • 040653Z AUTO 21004KT 10SM CLR M06/M11 A3038 RMK AO2 SLP295 T10561111
  • 040553Z AUTO 29003KT 10SM CLR M04/M11 A3040 RMK AO2 SLP302 T10441106 11017 21050 58008

TAF N/A
KZID FIR / North America



MET'MAP, your aeronautical weather chart ! - Copyright ORBIFLY December 2007 - Disclaimer

ORBIFLY MET'MAP TEAM :

Programming & Development : Alexandra Zaïnal
Original concept : Baudouin d'Aumeries
Technical & hardware support : Manuel Goepfert
Assistance : Marc-Olivier Méhu




SOURCES & CREDITS :

   NOAA       Earth
Advisory